sensor_id;sensor_type;location;lat;lon;timestamp;temperature;humidity
6988;DHT22;3534;49.960;8.018;2022-10-19T00:01:40;15.50;99.90
6988;DHT22;3534;49.960;8.018;2022-10-19T00:04:06;15.60;99.90
6988;DHT22;3534;49.960;8.018;2022-10-19T00:06:35;15.60;99.90
6988;DHT22;3534;49.960;8.018;2022-10-19T00:09:04;15.50;99.90
6988;DHT22;3534;49.960;8.018;2022-10-19T00:11:32;15.60;99.90
6988;DHT22;3534;49.960;8.018;2022-10-19T00:14:00;15.60;99.90
6988;DHT22;3534;49.960;8.018;2022-10-19T00:16:29;15.60;99.90
6988;DHT22;3534;49.960;8.018;2022-10-19T00:18:56;15.60;99.90
6988;DHT22;3534;49.960;8.018;2022-10-19T00:21:23;15.60;99.90
6988;DHT22;3534;49.960;8.018;2022-10-19T00:23:51;15.60;99.90
6988;DHT22;3534;49.960;8.018;2022-10-19T00:26:18;15.60;99.90
6988;DHT22;3534;49.960;8.018;2022-10-19T00:28:45;15.60;99.90
6988;DHT22;3534;49.960;8.018;2022-10-19T00:31:15;15.70;99.90
6988;DHT22;3534;49.960;8.018;2022-10-19T00:33:43;15.70;99.90
6988;DHT22;3534;49.960;8.018;2022-10-19T00:36:15;15.70;99.90
6988;DHT22;3534;49.960;8.018;2022-10-19T00:38:42;15.70;99.90
6988;DHT22;3534;49.960;8.018;2022-10-19T00:41:10;15.70;99.90
6988;DHT22;3534;49.960;8.018;2022-10-19T00:43:50;15.70;99.90
6988;DHT22;3534;49.960;8.018;2022-10-19T00:46:17;15.70;99.90
6988;DHT22;3534;49.960;8.018;2022-10-19T00:48:44;15.70;99.90
6988;DHT22;3534;49.960;8.018;2022-10-19T00:51:11;15.70;99.90
6988;DHT22;3534;49.960;8.018;2022-10-19T00:53:38;15.70;99.90
6988;DHT22;3534;49.960;8.018;2022-10-19T00:56:09;15.70;99.90
6988;DHT22;3534;49.960;8.018;2022-10-19T00:58:38;15.70;99.90
6988;DHT22;3534;49.960;8.018;2022-10-19T01:01:08;15.70;99.90
6988;DHT22;3534;49.960;8.018;2022-10-19T01:03:35;15.80;99.90
6988;DHT22;3534;49.960;8.018;2022-10-19T01:06:02;15.70;99.90
6988;DHT22;3534;49.960;8.018;2022-10-19T01:08:29;15.70;99.90
6988;DHT22;3534;49.960;8.018;2022-10-19T01:11:06;15.80;99.90
6988;DHT22;3534;49.960;8.018;2022-10-19T01:13:45;15.80;99.90
6988;DHT22;3534;49.960;8.018;2022-10-19T01:16:19;15.80;99.90
6988;DHT22;3534;49.960;8.018;2022-10-19T01:18:52;15.80;99.90
6988;DHT22;3534;49.960;8.018;2022-10-19T01:21:22;15.80;99.90
6988;DHT22;3534;49.960;8.018;2022-10-19T01:26:56;15.80;99.90
6988;DHT22;3534;49.960;8.018;2022-10-19T01:29:49;15.80;99.90
6988;DHT22;3534;49.960;8.018;2022-10-19T01:32:20;15.80;99.90
6988;DHT22;3534;49.960;8.018;2022-10-19T01:34:54;15.80;99.90
6988;DHT22;3534;49.960;8.018;2022-10-19T01:37:29;15.80;99.90
6988;DHT22;3534;49.960;8.018;2022-10-19T01:40:02;15.90;99.90
6988;DHT22;3534;49.960;8.018;2022-10-19T01:42:32;15.90;99.90
6988;DHT22;3534;49.960;8.018;2022-10-19T01:45:10;15.90;99.90
6988;DHT22;3534;49.960;8.018;2022-10-19T01:47:44;15.80;99.90
6988;DHT22;3534;49.960;8.018;2022-10-19T01:50:15;15.80;99.90
6988;DHT22;3534;49.960;8.018;2022-10-19T01:52:43;15.80;99.90
6988;DHT22;3534;49.960;8.018;2022-10-19T01:55:12;15.80;99.90
6988;DHT22;3534;49.960;8.018;2022-10-19T01:57:44;15.80;99.90
6988;DHT22;3534;49.960;8.018;2022-10-19T02:00:15;15.80;99.90
6988;DHT22;3534;49.960;8.018;2022-10-19T02:02:44;15.80;99.90
6988;DHT22;3534;49.960;8.018;2022-10-19T02:05:13;15.80;99.90
6988;DHT22;3534;49.960;8.018;2022-10-19T02:07:43;15.80;99.90
6988;DHT22;3534;49.960;8.018;2022-10-19T02:10:11;15.80;99.90
6988;DHT22;3534;49.960;8.018;2022-10-19T02:12:39;15.80;99.90
6988;DHT22;3534;49.960;8.018;2022-10-19T02:15:09;15.80;99.90
6988;DHT22;3534;49.960;8.018;2022-10-19T02:17:43;15.70;99.90
6988;DHT22;3534;49.960;8.018;2022-10-19T02:20:11;15.70;99.90
6988;DHT22;3534;49.960;8.018;2022-10-19T02:22:38;15.70;99.90
6988;DHT22;3534;49.960;8.018;2022-10-19T02:25:06;15.70;99.90
6988;DHT22;3534;49.960;8.018;2022-10-19T02:27:34;15.70;99.90
6988;DHT22;3534;49.960;8.018;2022-10-19T02:30:02;15.70;99.90
6988;DHT22;3534;49.960;8.018;2022-10-19T02:32:29;15.70;99.90
6988;DHT22;3534;49.960;8.018;2022-10-19T02:34:57;15.70;99.90
6988;DHT22;3534;49.960;8.018;2022-10-19T02:37:24;15.70;99.90
6988;DHT22;3534;49.960;8.018;2022-10-19T02:39:50;15.70;99.90
6988;DHT22;3534;49.960;8.018;2022-10-19T02:42:21;15.70;99.90
6988;DHT22;3534;49.960;8.018;2022-10-19T02:44:55;15.80;99.90
6988;DHT22;3534;49.960;8.018;2022-10-19T02:47:26;15.80;99.90
6988;DHT22;3534;49.960;8.018;2022-10-19T02:49:53;15.80;99.90
6988;DHT22;3534;49.960;8.018;2022-10-19T02:52:21;15.80;99.90
6988;DHT22;3534;49.960;8.018;2022-10-19T02:54:48;15.80;99.90
6988;DHT22;3534;49.960;8.018;2022-10-19T02:57:16;15.80;99.90
6988;DHT22;3534;49.960;8.018;2022-10-19T02:59:44;15.80;99.90
6988;DHT22;3534;49.960;8.018;2022-10-19T03:02:11;15.80;99.90
6988;DHT22;3534;49.960;8.018;2022-10-19T03:04:37;15.80;99.90
6988;DHT22;3534;49.960;8.018;2022-10-19T03:07:06;15.80;99.90
6988;DHT22;3534;49.960;8.018;2022-10-19T03:09:34;15.80;99.90
6988;DHT22;3534;49.960;8.018;2022-10-19T03:12:00;15.80;99.90
6988;DHT22;3534;49.960;8.018;2022-10-19T03:14:27;15.80;99.90
6988;DHT22;3534;49.960;8.018;2022-10-19T03:16:54;15.80;99.90
6988;DHT22;3534;49.960;8.018;2022-10-19T03:19:21;15.80;99.90
6988;DHT22;3534;49.960;8.018;2022-10-19T03:21:48;15.80;99.90
6988;DHT22;3534;49.960;8.018;2022-10-19T03:24:15;15.80;99.90
6988;DHT22;3534;49.960;8.018;2022-10-19T03:26:43;15.80;99.90
6988;DHT22;3534;49.960;8.018;2022-10-19T03:29:10;15.80;99.90
6988;DHT22;3534;49.960;8.018;2022-10-19T03:31:36;15.80;99.90
6988;DHT22;3534;49.960;8.018;2022-10-19T03:34:03;15.80;99.90
6988;DHT22;3534;49.960;8.018;2022-10-19T03:36:31;15.80;99.90
6988;DHT22;3534;49.960;8.018;2022-10-19T03:39:00;15.80;99.90
6988;DHT22;3534;49.960;8.018;2022-10-19T03:41:28;15.80;99.90
6988;DHT22;3534;49.960;8.018;2022-10-19T03:43:57;15.80;99.90
6988;DHT22;3534;49.960;8.018;2022-10-19T03:46:24;15.80;99.90
6988;DHT22;3534;49.960;8.018;2022-10-19T03:48:51;15.80;99.90
6988;DHT22;3534;49.960;8.018;2022-10-19T03:51:20;15.80;99.90
6988;DHT22;3534;49.960;8.018;2022-10-19T03:53:47;15.80;99.90
6988;DHT22;3534;49.960;8.018;2022-10-19T03:56:18;15.80;99.90
6988;DHT22;3534;49.960;8.018;2022-10-19T03:58:47;15.80;99.90
6988;DHT22;3534;49.960;8.018;2022-10-19T04:01:17;15.80;99.90
6988;DHT22;3534;49.960;8.018;2022-10-19T04:03:44;15.80;99.90
6988;DHT22;3534;49.960;8.018;2022-10-19T04:06:13;15.80;99.90
6988;DHT22;3534;49.960;8.018;2022-10-19T04:08:40;15.80;99.90
6988;DHT22;3534;49.960;8.018;2022-10-19T04:11:10;15.70;99.90
6988;DHT22;3534;49.960;8.018;2022-10-19T04:13:38;15.70;99.90
6988;DHT22;3534;49.960;8.018;2022-10-19T04:16:06;15.70;99.90
6988;DHT22;3534;49.960;8.018;2022-10-19T04:18:34;15.70;99.90
6988;DHT22;3534;49.960;8.018;2022-10-19T04:21:02;15.70;99.90
6988;DHT22;3534;49.960;8.018;2022-10-19T04:23:32;15.70;99.90
6988;DHT22;3534;49.960;8.018;2022-10-19T04:25:59;15.70;99.90
6988;DHT22;3534;49.960;8.018;2022-10-19T04:28:27;15.70;99.90
6988;DHT22;3534;49.960;8.018;2022-10-19T04:30:55;15.70;99.90
6988;DHT22;3534;49.960;8.018;2022-10-19T04:33:22;15.70;99.90
6988;DHT22;3534;49.960;8.018;2022-10-19T04:35:50;15.70;99.90
6988;DHT22;3534;49.960;8.018;2022-10-19T04:38:22;15.70;99.90
6988;DHT22;3534;49.960;8.018;2022-10-19T04:40:49;15.70;99.90
6988;DHT22;3534;49.960;8.018;2022-10-19T04:43:16;15.70;99.90
6988;DHT22;3534;49.960;8.018;2022-10-19T04:45:43;15.60;99.90
6988;DHT22;3534;49.960;8.018;2022-10-19T04:48:10;15.60;99.90
6988;DHT22;3534;49.960;8.018;2022-10-19T04:50:37;15.50;99.90
6988;DHT22;3534;49.960;8.018;2022-10-19T04:53:05;15.40;99.90
6988;DHT22;3534;49.960;8.018;2022-10-19T04:55:31;15.40;99.90
6988;DHT22;3534;49.960;8.018;2022-10-19T04:57:58;15.30;99.90
6988;DHT22;3534;49.960;8.018;2022-10-19T05:00:25;15.30;99.90
6988;DHT22;3534;49.960;8.018;2022-10-19T05:02:51;15.30;99.90
6988;DHT22;3534;49.960;8.018;2022-10-19T05:05:18;15.30;99.90
6988;DHT22;3534;49.960;8.018;2022-10-19T05:07:47;15.30;99.90
6988;DHT22;3534;49.960;8.018;2022-10-19T05:10:15;15.40;99.90
6988;DHT22;3534;49.960;8.018;2022-10-19T05:12:42;15.30;99.90
6988;DHT22;3534;49.960;8.018;2022-10-19T05:15:09;15.40;99.90
6988;DHT22;3534;49.960;8.018;2022-10-19T05:17:36;15.30;99.90
6988;DHT22;3534;49.960;8.018;2022-10-19T05:20:04;15.30;99.90
6988;DHT22;3534;49.960;8.018;2022-10-19T05:22:30;15.30;99.90
6988;DHT22;3534;49.960;8.018;2022-10-19T05:24:57;15.30;99.90
6988;DHT22;3534;49.960;8.018;2022-10-19T05:27:25;15.30;99.90
6988;DHT22;3534;49.960;8.018;2022-10-19T05:29:52;15.30;99.90
6988;DHT22;3534;49.960;8.018;2022-10-19T05:32:19;15.30;99.90
6988;DHT22;3534;49.960;8.018;2022-10-19T05:34:45;15.30;99.90
6988;DHT22;3534;49.960;8.018;2022-10-19T05:37:12;15.20;99.90
6988;DHT22;3534;49.960;8.018;2022-10-19T05:39:39;15.20;99.90
6988;DHT22;3534;49.960;8.018;2022-10-19T05:42:06;15.20;99.90
6988;DHT22;3534;49.960;8.018;2022-10-19T05:44:34;15.30;99.90
6988;DHT22;3534;49.960;8.018;2022-10-19T05:47:02;15.30;99.90
6988;DHT22;3534;49.960;8.018;2022-10-19T05:49:29;15.30;99.90
6988;DHT22;3534;49.960;8.018;2022-10-19T05:51:56;15.30;99.90
6988;DHT22;3534;49.960;8.018;2022-10-19T05:54:22;15.30;99.90
6988;DHT22;3534;49.960;8.018;2022-10-19T05:56:49;15.30;99.90
6988;DHT22;3534;49.960;8.018;2022-10-19T05:59:18;15.30;99.90
6988;DHT22;3534;49.960;8.018;2022-10-19T06:01:47;15.40;99.90
6988;DHT22;3534;49.960;8.018;2022-10-19T06:04:14;15.40;99.90
6988;DHT22;3534;49.960;8.018;2022-10-19T06:06:41;15.40;99.90
6988;DHT22;3534;49.960;8.018;2022-10-19T06:09:08;15.40;99.90
6988;DHT22;3534;49.960;8.018;2022-10-19T06:11:36;15.30;99.90
6988;DHT22;3534;49.960;8.018;2022-10-19T06:14:05;15.30;99.90
6988;DHT22;3534;49.960;8.018;2022-10-19T06:16:33;15.30;99.90
6988;DHT22;3534;49.960;8.018;2022-10-19T06:19:02;15.30;99.90
6988;DHT22;3534;49.960;8.018;2022-10-19T06:21:31;15.30;99.90
6988;DHT22;3534;49.960;8.018;2022-10-19T06:23:59;15.30;99.90
6988;DHT22;3534;49.960;8.018;2022-10-19T06:26:28;15.30;99.90
6988;DHT22;3534;49.960;8.018;2022-10-19T06:28:56;15.30;99.90
6988;DHT22;3534;49.960;8.018;2022-10-19T06:31:24;15.30;99.90
6988;DHT22;3534;49.960;8.018;2022-10-19T06:33:51;15.30;99.90
6988;DHT22;3534;49.960;8.018;2022-10-19T06:36:21;15.30;99.90
6988;DHT22;3534;49.960;8.018;2022-10-19T06:38:48;15.30;99.90
6988;DHT22;3534;49.960;8.018;2022-10-19T06:41:15;15.30;99.90
6988;DHT22;3534;49.960;8.018;2022-10-19T06:43:42;15.30;99.90
6988;DHT22;3534;49.960;8.018;2022-10-19T06:46:11;15.30;99.90
6988;DHT22;3534;49.960;8.018;2022-10-19T06:48:39;15.30;99.90
6988;DHT22;3534;49.960;8.018;2022-10-19T06:51:06;15.30;99.90
6988;DHT22;3534;49.960;8.018;2022-10-19T06:53:35;15.20;99.90
6988;DHT22;3534;49.960;8.018;2022-10-19T06:56:04;15.20;99.90
6988;DHT22;3534;49.960;8.018;2022-10-19T06:58:34;15.10;99.90
6988;DHT22;3534;49.960;8.018;2022-10-19T07:01:02;15.10;99.90
6988;DHT22;3534;49.960;8.018;2022-10-19T07:03:29;15.10;99.90
6988;DHT22;3534;49.960;8.018;2022-10-19T07:05:57;15.20;99.90
6988;DHT22;3534;49.960;8.018;2022-10-19T07:08:26;15.20;99.90
6988;DHT22;3534;49.960;8.018;2022-10-19T07:10:56;15.20;99.90
6988;DHT22;3534;49.960;8.018;2022-10-19T07:13:24;15.20;99.90
6988;DHT22;3534;49.960;8.018;2022-10-19T07:15:56;15.30;99.90
6988;DHT22;3534;49.960;8.018;2022-10-19T07:18:23;15.30;99.90
6988;DHT22;3534;49.960;8.018;2022-10-19T07:20:54;15.30;99.90
6988;DHT22;3534;49.960;8.018;2022-10-19T07:23:20;15.40;99.90
6988;DHT22;3534;49.960;8.018;2022-10-19T07:25:47;15.40;99.90
6988;DHT22;3534;49.960;8.018;2022-10-19T07:28:15;15.40;99.90
6988;DHT22;3534;49.960;8.018;2022-10-19T07:30:42;15.40;99.90
6988;DHT22;3534;49.960;8.018;2022-10-19T07:33:09;15.40;99.90
6988;DHT22;3534;49.960;8.018;2022-10-19T07:35:35;15.40;99.90
6988;DHT22;3534;49.960;8.018;2022-10-19T07:38:02;15.40;99.90
6988;DHT22;3534;49.960;8.018;2022-10-19T07:40:29;15.40;99.90
6988;DHT22;3534;49.960;8.018;2022-10-19T07:42:56;15.40;99.90
6988;DHT22;3534;49.960;8.018;2022-10-19T07:45:24;15.40;99.90
6988;DHT22;3534;49.960;8.018;2022-10-19T07:47:50;15.50;99.90
6988;DHT22;3534;49.960;8.018;2022-10-19T07:50:17;15.50;99.90
6988;DHT22;3534;49.960;8.018;2022-10-19T07:52:44;15.50;99.90
6988;DHT22;3534;49.960;8.018;2022-10-19T07:55:11;15.60;99.90
6988;DHT22;3534;49.960;8.018;2022-10-19T07:57:37;15.60;99.90
6988;DHT22;3534;49.960;8.018;2022-10-19T08:00:05;15.70;99.90
6988;DHT22;3534;49.960;8.018;2022-10-19T08:02:33;15.70;99.90
6988;DHT22;3534;49.960;8.018;2022-10-19T08:05:00;15.80;99.90
6988;DHT22;3534;49.960;8.018;2022-10-19T08:07:27;15.80;99.90
6988;DHT22;3534;49.960;8.018;2022-10-19T08:09:53;15.90;99.90
6988;DHT22;3534;49.960;8.018;2022-10-19T08:12:20;15.90;99.90
6988;DHT22;3534;49.960;8.018;2022-10-19T08:14:47;16.00;99.90
6988;DHT22;3534;49.960;8.018;2022-10-19T08:17:14;16.10;99.90
6988;DHT22;3534;49.960;8.018;2022-10-19T08:19:43;16.10;99.90
6988;DHT22;3534;49.960;8.018;2022-10-19T08:22:10;16.10;99.90
6988;DHT22;3534;49.960;8.018;2022-10-19T08:24:37;16.10;99.90
6988;DHT22;3534;49.960;8.018;2022-10-19T08:27:04;16.20;99.90
6988;DHT22;3534;49.960;8.018;2022-10-19T08:29:31;16.10;99.90
6988;DHT22;3534;49.960;8.018;2022-10-19T08:31:58;16.10;99.90
6988;DHT22;3534;49.960;8.018;2022-10-19T08:34:25;16.20;99.90
6988;DHT22;3534;49.960;8.018;2022-10-19T08:36:53;16.20;99.90
6988;DHT22;3534;49.960;8.018;2022-10-19T08:39:20;16.20;99.90
6988;DHT22;3534;49.960;8.018;2022-10-19T08:41:56;16.20;99.90
6988;DHT22;3534;49.960;8.018;2022-10-19T08:44:55;16.30;99.90
6988;DHT22;3534;49.960;8.018;2022-10-19T08:47:34;16.30;99.90
6988;DHT22;3534;49.960;8.018;2022-10-19T08:50:13;16.40;99.90
6988;DHT22;3534;49.960;8.018;2022-10-19T08:52:45;16.40;99.90
6988;DHT22;3534;49.960;8.018;2022-10-19T08:55:16;16.40;99.90
6988;DHT22;3534;49.960;8.018;2022-10-19T08:57:52;16.50;99.90
6988;DHT22;3534;49.960;8.018;2022-10-19T09:00:29;16.50;99.90
6988;DHT22;3534;49.960;8.018;2022-10-19T09:03:08;16.50;99.90
6988;DHT22;3534;49.960;8.018;2022-10-19T09:05:45;16.60;99.90
6988;DHT22;3534;49.960;8.018;2022-10-19T09:08:14;16.70;99.90
6988;DHT22;3534;49.960;8.018;2022-10-19T09:10:45;16.70;99.90
6988;DHT22;3534;49.960;8.018;2022-10-19T09:13:15;16.70;99.90
6988;DHT22;3534;49.960;8.018;2022-10-19T09:15:45;16.80;99.90
6988;DHT22;3534;49.960;8.018;2022-10-19T09:18:14;16.80;99.90
6988;DHT22;3534;49.960;8.018;2022-10-19T09:20:47;16.80;99.90
6988;DHT22;3534;49.960;8.018;2022-10-19T09:23:20;16.90;99.90
6988;DHT22;3534;49.960;8.018;2022-10-19T09:25:47;16.90;99.90
6988;DHT22;3534;49.960;8.018;2022-10-19T09:28:30;17.00;99.90
6988;DHT22;3534;49.960;8.018;2022-10-19T09:30:58;17.00;99.90
6988;DHT22;3534;49.960;8.018;2022-10-19T09:33:29;17.10;99.90
6988;DHT22;3534;49.960;8.018;2022-10-19T09:35:59;17.10;99.90
6988;DHT22;3534;49.960;8.018;2022-10-19T09:38:29;17.20;99.90
6988;DHT22;3534;49.960;8.018;2022-10-19T09:40:57;17.20;99.90
6988;DHT22;3534;49.960;8.018;2022-10-19T09:43:25;17.30;99.90
6988;DHT22;3534;49.960;8.018;2022-10-19T09:45:56;17.30;99.90
6988;DHT22;3534;49.960;8.018;2022-10-19T09:48:29;17.40;99.90
6988;DHT22;3534;49.960;8.018;2022-10-19T09:50:59;17.40;99.90
6988;DHT22;3534;49.960;8.018;2022-10-19T09:53:26;17.50;99.90
6988;DHT22;3534;49.960;8.018;2022-10-19T09:56:03;17.50;99.90
6988;DHT22;3534;49.960;8.018;2022-10-19T09:58:30;17.50;99.90
6988;DHT22;3534;49.960;8.018;2022-10-19T10:00:57;17.60;99.90
6988;DHT22;3534;49.960;8.018;2022-10-19T10:03:27;17.70;99.90
6988;DHT22;3534;49.960;8.018;2022-10-19T10:05:56;17.70;99.90
6988;DHT22;3534;49.960;8.018;2022-10-19T10:08:25;17.70;99.90
6988;DHT22;3534;49.960;8.018;2022-10-19T10:10:57;17.70;99.90
6988;DHT22;3534;49.960;8.018;2022-10-19T10:13:26;17.80;99.90
6988;DHT22;3534;49.960;8.018;2022-10-19T10:15:55;17.80;99.90
6988;DHT22;3534;49.960;8.018;2022-10-19T10:18:24;17.90;99.90
6988;DHT22;3534;49.960;8.018;2022-10-19T10:21:00;17.90;99.90
6988;DHT22;3534;49.960;8.018;2022-10-19T10:23:28;18.00;99.90
6988;DHT22;3534;49.960;8.018;2022-10-19T10:25:57;18.00;99.90
6988;DHT22;3534;49.960;8.018;2022-10-19T10:28:27;18.10;99.90
6988;DHT22;3534;49.960;8.018;2022-10-19T10:30:59;18.20;99.90
6988;DHT22;3534;49.960;8.018;2022-10-19T10:33:28;18.30;99.90
6988;DHT22;3534;49.960;8.018;2022-10-19T10:36:01;18.40;99.90
6988;DHT22;3534;49.960;8.018;2022-10-19T10:38:31;18.50;99.90
6988;DHT22;3534;49.960;8.018;2022-10-19T10:41:02;18.50;99.90
6988;DHT22;3534;49.960;8.018;2022-10-19T10:43:35;18.60;99.90
6988;DHT22;3534;49.960;8.018;2022-10-19T10:46:05;18.70;99.90
6988;DHT22;3534;49.960;8.018;2022-10-19T10:48:37;18.80;99.90
6988;DHT22;3534;49.960;8.018;2022-10-19T10:51:17;19.00;99.90
6988;DHT22;3534;49.960;8.018;2022-10-19T10:53:45;19.10;99.90
6988;DHT22;3534;49.960;8.018;2022-10-19T10:56:23;19.30;99.90
6988;DHT22;3534;49.960;8.018;2022-10-19T10:58:57;19.40;99.90
6988;DHT22;3534;49.960;8.018;2022-10-19T11:01:28;19.50;99.90
6988;DHT22;3534;49.960;8.018;2022-10-19T11:04:00;19.70;99.90
6988;DHT22;3534;49.960;8.018;2022-10-19T11:06:29;19.80;99.90
6988;DHT22;3534;49.960;8.018;2022-10-19T11:09:05;20.00;99.90
6988;DHT22;3534;49.960;8.018;2022-10-19T11:11:35;20.00;99.90
6988;DHT22;3534;49.960;8.018;2022-10-19T11:14:24;20.00;99.90
6988;DHT22;3534;49.960;8.018;2022-10-19T11:16:53;20.10;99.90
6988;DHT22;3534;49.960;8.018;2022-10-19T11:19:23;20.20;99.90
6988;DHT22;3534;49.960;8.018;2022-10-19T11:21:56;20.40;99.90
6988;DHT22;3534;49.960;8.018;2022-10-19T11:24:34;20.50;99.90
6988;DHT22;3534;49.960;8.018;2022-10-19T11:27:15;20.70;99.90
6988;DHT22;3534;49.960;8.018;2022-10-19T11:30:01;20.80;99.90
6988;DHT22;3534;49.960;8.018;2022-10-19T11:32:37;21.00;99.90
6988;DHT22;3534;49.960;8.018;2022-10-19T11:38:11;21.30;99.90
6988;DHT22;3534;49.960;8.018;2022-10-19T11:40:44;21.40;99.90
6988;DHT22;3534;49.960;8.018;2022-10-19T11:43:20;21.60;99.90
6988;DHT22;3534;49.960;8.018;2022-10-19T11:45:54;21.70;99.90
6988;DHT22;3534;49.960;8.018;2022-10-19T11:48:43;21.80;99.90
6988;DHT22;3534;49.960;8.018;2022-10-19T11:51:17;22.00;99.90
6988;DHT22;3534;49.960;8.018;2022-10-19T11:53:53;22.20;99.90
6988;DHT22;3534;49.960;8.018;2022-10-19T11:56:27;22.40;99.90
6988;DHT22;3534;49.960;8.018;2022-10-19T11:59:02;22.60;99.90
6988;DHT22;3534;49.960;8.018;2022-10-19T12:01:46;22.70;99.90
6988;DHT22;3534;49.960;8.018;2022-10-19T12:04:37;22.90;99.90
6988;DHT22;3534;49.960;8.018;2022-10-19T12:07:21;23.10;99.90
6988;DHT22;3534;49.960;8.018;2022-10-19T12:10:01;23.10;99.90
6988;DHT22;3534;49.960;8.018;2022-10-19T12:12:31;23.20;99.90
6988;DHT22;3534;49.960;8.018;2022-10-19T12:15:10;23.10;99.90
6988;DHT22;3534;49.960;8.018;2022-10-19T12:17:41;23.00;99.90
6988;DHT22;3534;49.960;8.018;2022-10-19T12:20:18;22.90;99.90
6988;DHT22;3534;49.960;8.018;2022-10-19T12:22:46;22.80;99.90
6988;DHT22;3534;49.960;8.018;2022-10-19T12:25:15;22.60;99.90
6988;DHT22;3534;49.960;8.018;2022-10-19T12:27:43;22.50;99.90
6988;DHT22;3534;49.960;8.018;2022-10-19T12:30:14;22.40;99.90
6988;DHT22;3534;49.960;8.018;2022-10-19T12:32:52;22.40;99.90
6988;DHT22;3534;49.960;8.018;2022-10-19T12:35:31;22.20;99.90
6988;DHT22;3534;49.960;8.018;2022-10-19T12:38:05;22.00;99.90
6988;DHT22;3534;49.960;8.018;2022-10-19T12:40:39;21.90;99.90
6988;DHT22;3534;49.960;8.018;2022-10-19T12:43:11;21.70;99.90
6988;DHT22;3534;49.960;8.018;2022-10-19T12:45:41;21.50;99.90
6988;DHT22;3534;49.960;8.018;2022-10-19T12:48:22;21.40;99.90
6988;DHT22;3534;49.960;8.018;2022-10-19T12:51:02;21.30;99.90
6988;DHT22;3534;49.960;8.018;2022-10-19T12:53:32;21.20;99.90
6988;DHT22;3534;49.960;8.018;2022-10-19T12:56:04;21.00;99.90
6988;DHT22;3534;49.960;8.018;2022-10-19T12:58:35;20.90;99.90
6988;DHT22;3534;49.960;8.018;2022-10-19T13:01:05;20.80;99.90
6988;DHT22;3534;49.960;8.018;2022-10-19T13:03:35;20.70;99.90
6988;DHT22;3534;49.960;8.018;2022-10-19T13:06:08;20.70;99.90
6988;DHT22;3534;49.960;8.018;2022-10-19T13:08:40;20.60;99.90
6988;DHT22;3534;49.960;8.018;2022-10-19T13:11:09;20.50;99.90
6988;DHT22;3534;49.960;8.018;2022-10-19T13:13:57;20.50;99.90
6988;DHT22;3534;49.960;8.018;2022-10-19T13:16:39;20.40;99.90
6988;DHT22;3534;49.960;8.018;2022-10-19T13:19:20;20.40;99.90
6988;DHT22;3534;49.960;8.018;2022-10-19T13:24:39;20.30;99.90
6988;DHT22;3534;49.960;8.018;2022-10-19T13:27:34;20.30;99.90
6988;DHT22;3534;49.960;8.018;2022-10-19T13:30:03;20.20;99.90
6988;DHT22;3534;49.960;8.018;2022-10-19T13:32:40;20.10;99.90
6988;DHT22;3534;49.960;8.018;2022-10-19T13:35:30;20.10;99.90
6988;DHT22;3534;49.960;8.018;2022-10-19T13:38:21;20.00;99.90
6988;DHT22;3534;49.960;8.018;2022-10-19T13:41:10;19.90;99.90
6988;DHT22;3534;49.960;8.018;2022-10-19T13:43:40;19.80;99.90
6988;DHT22;3534;49.960;8.018;2022-10-19T13:46:18;19.90;99.90
6988;DHT22;3534;49.960;8.018;2022-10-19T13:49:04;19.90;99.90
6988;DHT22;3534;49.960;8.018;2022-10-19T13:51:44;19.80;99.90
6988;DHT22;3534;49.960;8.018;2022-10-19T13:54:28;19.80;99.90
6988;DHT22;3534;49.960;8.018;2022-10-19T13:57:15;19.70;99.90
6988;DHT22;3534;49.960;8.018;2022-10-19T14:00:08;19.70;99.90
6988;DHT22;3534;49.960;8.018;2022-10-19T14:03:08;19.60;99.90
6988;DHT22;3534;49.960;8.018;2022-10-19T14:05:53;19.60;99.90
6988;DHT22;3534;49.960;8.018;2022-10-19T14:08:47;19.60;99.90
6988;DHT22;3534;49.960;8.018;2022-10-19T14:11:23;19.50;99.90
6988;DHT22;3534;49.960;8.018;2022-10-19T14:14:07;19.50;99.90
6988;DHT22;3534;49.960;8.018;2022-10-19T14:16:45;19.40;99.90
6988;DHT22;3534;49.960;8.018;2022-10-19T14:19:13;19.40;99.90
6988;DHT22;3534;49.960;8.018;2022-10-19T14:21:44;19.30;99.90
6988;DHT22;3534;49.960;8.018;2022-10-19T14:24:27;19.30;99.90
6988;DHT22;3534;49.960;8.018;2022-10-19T14:26:54;19.20;99.90
6988;DHT22;3534;49.960;8.018;2022-10-19T14:29:21;19.10;99.90
6988;DHT22;3534;49.960;8.018;2022-10-19T14:31:48;19.10;99.90
6988;DHT22;3534;49.960;8.018;2022-10-19T14:34:15;19.10;99.90
6988;DHT22;3534;49.960;8.018;2022-10-19T14:36:45;19.00;99.90
6988;DHT22;3534;49.960;8.018;2022-10-19T14:39:25;19.00;99.90
6988;DHT22;3534;49.960;8.018;2022-10-19T14:41:53;18.90;99.90
6988;DHT22;3534;49.960;8.018;2022-10-19T14:44:33;18.90;99.90
6988;DHT22;3534;49.960;8.018;2022-10-19T14:47:05;18.80;99.90
6988;DHT22;3534;49.960;8.018;2022-10-19T14:49:32;18.80;99.90
6988;DHT22;3534;49.960;8.018;2022-10-19T14:52:00;18.80;99.90
6988;DHT22;3534;49.960;8.018;2022-10-19T14:54:30;18.80;99.90
6988;DHT22;3534;49.960;8.018;2022-10-19T14:57:03;18.70;99.90
6988;DHT22;3534;49.960;8.018;2022-10-19T14:59:34;18.70;99.90
6988;DHT22;3534;49.960;8.018;2022-10-19T15:02:05;18.70;99.90
6988;DHT22;3534;49.960;8.018;2022-10-19T15:04:37;18.70;99.90
6988;DHT22;3534;49.960;8.018;2022-10-19T15:07:14;18.60;99.90
6988;DHT22;3534;49.960;8.018;2022-10-19T15:09:48;18.60;99.90
6988;DHT22;3534;49.960;8.018;2022-10-19T15:12:19;18.60;99.90
6988;DHT22;3534;49.960;8.018;2022-10-19T15:14:47;18.60;99.90
6988;DHT22;3534;49.960;8.018;2022-10-19T15:17:21;18.50;99.90
6988;DHT22;3534;49.960;8.018;2022-10-19T15:19:49;18.50;99.90
6988;DHT22;3534;49.960;8.018;2022-10-19T15:22:17;18.50;99.90
6988;DHT22;3534;49.960;8.018;2022-10-19T15:25:14;18.50;99.90
6988;DHT22;3534;49.960;8.018;2022-10-19T15:27:44;18.50;99.90
6988;DHT22;3534;49.960;8.018;2022-10-19T15:30:24;18.50;99.90
6988;DHT22;3534;49.960;8.018;2022-10-19T15:32:55;18.40;99.90
6988;DHT22;3534;49.960;8.018;2022-10-19T15:35:27;18.40;99.90
6988;DHT22;3534;49.960;8.018;2022-10-19T15:38:00;18.40;99.90
6988;DHT22;3534;49.960;8.018;2022-10-19T15:40:32;18.40;99.90
6988;DHT22;3534;49.960;8.018;2022-10-19T15:43:00;18.30;99.90
6988;DHT22;3534;49.960;8.018;2022-10-19T15:45:30;18.30;99.90
6988;DHT22;3534;49.960;8.018;2022-10-19T15:48:23;18.30;99.90
6988;DHT22;3534;49.960;8.018;2022-10-19T15:50:50;18.30;99.90
6988;DHT22;3534;49.960;8.018;2022-10-19T15:53:19;18.20;99.90
6988;DHT22;3534;49.960;8.018;2022-10-19T15:55:48;18.20;99.90
6988;DHT22;3534;49.960;8.018;2022-10-19T15:58:15;18.20;99.90
6988;DHT22;3534;49.960;8.018;2022-10-19T16:00:43;18.10;99.90
6988;DHT22;3534;49.960;8.018;2022-10-19T16:03:09;18.00;99.90
6988;DHT22;3534;49.960;8.018;2022-10-19T16:05:36;18.00;99.90
6988;DHT22;3534;49.960;8.018;2022-10-19T16:08:04;17.90;99.90
6988;DHT22;3534;49.960;8.018;2022-10-19T16:10:31;17.90;99.90
6988;DHT22;3534;49.960;8.018;2022-10-19T16:12:59;17.90;99.90
6988;DHT22;3534;49.960;8.018;2022-10-19T16:15:26;17.90;99.90
6988;DHT22;3534;49.960;8.018;2022-10-19T16:17:54;17.80;99.90
6988;DHT22;3534;49.960;8.018;2022-10-19T16:20:22;17.80;99.90
6988;DHT22;3534;49.960;8.018;2022-10-19T16:22:50;17.80;99.90
6988;DHT22;3534;49.960;8.018;2022-10-19T16:25:17;17.70;99.90
6988;DHT22;3534;49.960;8.018;2022-10-19T16:27:44;17.70;99.90
6988;DHT22;3534;49.960;8.018;2022-10-19T16:30:12;17.70;99.90
6988;DHT22;3534;49.960;8.018;2022-10-19T16:32:39;17.70;99.90
6988;DHT22;3534;49.960;8.018;2022-10-19T16:35:07;17.60;99.90